Have a Safe July 4th! 

Flight Track Log - Related Links

Times and Time Zones

All times are in EDT time to prevent confusion due to time zone crossing. See the GLA91R flight status page for this flight to view local times or setup timezone preferences in your user account.

Time Position Orientation Groundspeed Altitude Reporting Facility
EDT Latitude Longitude Course Direction KTS MPH feet Rate Location/Type
Sun 09:47:51 AM 43.1053 -108.5058 155° Southeast 150 173 7,800  Level Salt Lake Center
Sun 09:48:00 AM 42.8918 -108.2420 160° South  Level Estimated
Sun 09:48:52 AM 43.0861 -108.4581 119° Southeast 218 251 8,900  Level Salt Lake Center
Sun 09:49:00 AM 42.8342 -108.1697 152° Southeast  Level Estimated
Sun 09:49:53 AM 43.0414 -108.4206 148° Southeast 204 235 10,100  Level Salt Lake Center
Sun 09:50:00 AM 42.7766 -108.0975 154° Southeast  Level Estimated
Sun 09:50:54 AM 43.0142 -108.3369 114° Southeast 237 273 11,000  Level Salt Lake Center
Sun 09:51:00 AM 42.7001 -108.0748 168° South  Level FlightAware Approximate
Sun 09:51:55 AM 42.9767 -108.2600 124° Southeast 239 275 11,900  Level Salt Lake Center
Sun 09:52:00 AM 42.6236 -108.0521 168° South  Level FlightAware Approximate
Sun 09:52:56 AM 42.9336 -108.1806 126° Southeast 246 283 13,000  Level Salt Lake Center
Sun 09:53:00 AM 42.5670 -107.9786 155° Southeast  Level Estimated
Sun 09:53:57 AM 42.8928 -108.1094 128° Southeast 248 285 14,000  Level Salt Lake Center
Sun 09:54:58 AM 42.8406 -108.0239 130° Southeast 257 296 15,100 1,082 Climbing Salt Lake Center
Sun 09:55:59 AM 42.7933 -107.9531 132° Southeast 261 300 16,200 1,082 Climbing Salt Lake Center
Sun 09:57:00 AM 42.7469 -107.8847 133° Southeast 259 298 17,300 992 Climbing Salt Lake Center
Sun 09:58:00 AM 42.6953 -107.8014 130° Southeast 258 297 18,200 893 Climbing Salt Lake Center
Sun 09:59:01 AM 42.6494 -107.7269 130° Southeast 262 302 19,100 968 Climbing Salt Lake Center
Sun 10:00:04 AM 42.5972 -107.6381 129° Southeast 268 308 20,200 1,016 Climbing Salt Lake Center
Sun 10:01:05 AM 42.5522 -107.5631 129° Southeast 267 307 21,200 885 Climbing Salt Lake Center
Sun 10:02:06 AM 42.5069 -107.4881 129° Southeast 269 310 22,000 885 Climbing Salt Lake Center
Sun 10:03:07 AM 42.4558 -107.3992 128° Southeast 267 307 23,000 492 Climbing Salt Lake Center
Sun 10:04:08 AM 42.4072 -107.3219 130° Southeast 278 320 23,000  Level Salt Lake Center
Sun 10:05:09 AM 42.3564 -107.2386 130° Southeast 295 339 23,000  Level Salt Lake Center
Sun 10:06:10 AM 42.2983 -107.1417 129° Southeast 297 342 23,000  Level Salt Lake Center
Sun 10:07:11 AM 42.2483 -107.0564 128° Southeast 302 348 23,000  Level Salt Lake Center
Sun 10:08:12 AM 42.1989 -106.9703 128° Southeast 302 348 23,000  Level Salt Lake Center
Sun 10:09:13 AM 42.1417 -106.8711 128° Southeast 301 346 23,000  Level Salt Lake Center
Sun 10:10:21 AM 42.0850 -106.7694 127° Southeast 302 348 23,000  Level Denver Center
Sun 10:11:23 AM 42.0381 -106.6847 127° Southeast 297 342 23,000  Level Denver Center
Sun 10:12:24 AM 41.9792 -106.5869 129° Southeast 300 345 23,000  Level Denver Center
Sun 10:13:25 AM 41.9247 -106.5089 133° Southeast 299 344 23,000  Level Denver Center
Sun 10:14:27 AM 41.8656 -106.4200 132° Southeast 296 341 23,000  Level Denver Center
Sun 10:15:28 AM 41.8114 -106.3428 133° Southeast 296 341 23,000  Level Denver Center
Sun 10:16:30 AM 41.7478 -106.2519 133° Southeast 298 343 23,000  Level Denver Center
Sun 10:17:31 AM 41.6944 -106.1764 133° Southeast 295 339 23,000  Level Denver Center
Sun 10:18:32 AM 41.6383 -106.1000 134° Southeast 299 344 23,000  Level Denver Center
Sun 10:19:34 AM 41.5708 -106.0169 137° Southeast 296 341 23,000  Level Denver Center
Sun 10:20:36 AM 41.5139 -105.9475 138° Southeast 293 337 23,000  Level Denver Center
Sun 10:21:37 AM 41.4422 -105.8728 142° Southeast 293 337 23,000  Level Denver Center
Sun 10:22:39 AM 41.3842 -105.8011 137° Southeast 296 341 23,000  Level Denver Center
Sun 10:23:40 AM 41.3222 -105.7064 131° Southeast 303 349 23,000 -634 Level Denver Center
Sun 10:24:42 AM 41.2700 -105.6158 127° Southeast 317 365 21,700 -1,403 Descending Denver Center
Sun 10:25:44 AM 41.2142 -105.5300 131° Southeast 321 369 20,100 -1,756 Descending Denver Center
Sun 10:26:45 AM 41.1506 -105.4331 131° Southeast 315 362 18,100 -1,756 Descending Denver Center
Sun 10:27:47 AM 41.0933 -105.3506 133° Southeast 316 364 16,500 -1,742 Descending Denver Center
Sun 10:28:49 AM 41.0247 -105.2483 132° Southeast 327 376 14,500 -1,645 Descending Denver Center
Sun 10:29:51 AM 40.9697 -105.1711 133° Southeast 324 373 13,100 -732 Descending Denver Center
Sun 10:30:52 AM 40.9119 -105.0942 135° Southeast 307 353 13,000 -49 Descending Denver Center
Sun 10:31:54 AM 40.8478 -105.0067 134° Southeast 283 326 13,000  Level Denver Center
Sun 10:32:56 AM 40.7994 -104.9419 135° Southeast 262 302 13,000 -97 Level Denver Center
Sun 10:33:58 AM 40.7489 -104.8767 136° Southeast 255 293 12,800 -532 Descending Denver Center
Sun 10:35:00 AM 40.6828 -104.8314 153° Southeast 261 300 11,900 -1,306 Descending Denver Center
Sun 10:36:02 AM 40.6183 -104.7644 142° Southeast 272 313 10,100 -1,854 Descending Denver Center
Sun 10:37:03 AM 40.5547 -104.6972 141° Southeast 289 333 8,100 -1,024 Descending Denver Center
Sun 10:38:05 AM 40.4942 -104.6297 140° Southeast 268 308 8,000 -48 Descending Denver Center
Sun 10:39:07 AM 40.4408 -104.5700 140° Southeast 257 296 8,000  Level Denver Center
Sun 10:40:09 AM 40.3911 -104.5142 139° Southeast 241 277 8,000  Level Denver Center
Sun 10:41:11 AM 40.3389 -104.4567 140° Southeast 231 266 8,000  Level Denver Center
Sun 10:42:13 AM 40.2811 -104.4292 160° South 226 260 8,000  Level Denver Center
Sun 10:43:15 AM 40.2147 -104.4253 177° South 227 261 8,000  Level Denver Center
Sun 10:44:17 AM 40.1994 -104.5042 256° West 232 267 8,000 -242 Level Denver Center
Sun 10:45:19 AM 40.1839 -104.5747 254° West 192 221 7,500 -484 Descending Denver Center
Sun 10:46:21 AM 40.1400 -104.6031 206° Southwest 179 206 7,000 -242 Descending Denver Center
Sun 10:47:23 AM 40.0872 -104.6358 205° Southwest 194 223 7,000  Level Denver Center
Sun 10:48:25 AM 40.0306 -104.6386 182° South 205 236 7,000  Level Denver Center
Sun 10:49:27 AM 39.9739 -104.6397 181° South 205 236 7,000 -290 Level Denver Center
Sun 10:50:29 AM 39.9161 -104.6408 181° South 194 223 6,400 -677 Descending Denver Center
Sun 10:51:31 AM 39.8758 -104.6414 181° South 143 165 5,600 -774 Descending Denver Center
Sun 10:53:00 AM 39.8500 -104.6667 186° South  Level FlightAware Approximate
Sun 11:00:00 AM 39.8617 -104.6732 186° South  Level Estimated
Sun 11:01:00 AM 39.8617 -104.6732 186° South  Level Estimated
Sun 11:02:00 AM 39.8617 -104.6732 186° South  Level Estimated

Login

Don't have an account? Register now (free) for customized features, flight alerts, and more!